Time;durP1;ratioP1;P1;durP2;ratioP2;P2;SDS_P1;SDS_P2;PMS_P1;PMS_P2;Temp;Humidity;BMP_temperature;BMP_pressure;BME280_temperature;BME280_humidity;BME280_pressure;Samples;Min_cycle;Max_cycle;Signal;HPM_P1;HPM_P2
2022/05/26 00:01:05;;;;;;;7.28;2.30;;;;;;;17.18;58.66;98857.84;4471816;32;20172;-82
2022/05/26 00:03:36;;;;;;;6.25;2.33;;;;;;;17.21;58.26;98854.91;4471672;32;20100;-82
2022/05/26 00:06:02;;;;;;;5.85;2.28;;;;;;;16.97;58.75;98871.06;4471748;32;20154;-82
2022/05/26 00:08:28;;;;;;;4.65;1.65;;;;;;;16.66;59.01;98858.31;4471827;32;20128;-83
2022/05/26 00:10:55;;;;;;;7.05;1.87;;;;;;;16.90;58.03;98860.91;4470145;32;20089;-82
2022/05/26 00:13:21;;;;;;;6.10;1.70;;;;;;;16.98;57.74;98860.28;4471917;32;20809;-82
2022/05/26 00:15:47;;;;;;;6.18;2.22;;;;;;;16.85;57.78;98863.06;4471569;32;20104;-82
2022/05/26 00:18:12;;;;;;;4.28;1.65;;;;;;;16.94;57.40;98868.62;4471526;32;20076;-83
2022/05/26 00:20:37;;;;;;;5.53;2.00;;;;;;;17.00;56.93;98879.66;4471362;32;20107;-83
2022/05/26 00:23:03;;;;;;;5.57;1.95;;;;;;;17.04;56.83;98883.75;4471853;32;20123;-82
2022/05/26 00:25:29;;;;;;;5.20;1.70;;;;;;;17.01;56.70;98880.47;4471463;32;20424;-83
2022/05/26 00:27:55;;;;;;;7.50;1.83;;;;;;;16.96;56.18;98877.34;4470609;32;20080;-82
2022/05/26 00:30:21;;;;;;;4.97;1.70;;;;;;;16.81;55.96;98882.88;4471374;32;20080;-81
2022/05/26 00:32:46;;;;;;;6.87;1.90;;;;;;;16.79;56.24;98883.97;4470279;32;20173;-82
2022/05/26 00:35:12;;;;;;;6.97;1.92;;;;;;;16.57;56.61;98892.78;4470638;32;20123;-82
2022/05/26 00:37:38;;;;;;;4.85;1.80;;;;;;;16.84;55.70;98890.66;4471847;32;20147;-82
2022/05/26 00:40:06;;;;;;;5.82;1.90;;;;;;;16.80;55.46;98890.97;4471773;32;20107;-82
2022/05/26 00:42:31;;;;;;;;;;;;;;;16.70;55.29;98897.00;4472090;32;20115;-82
2022/05/26 00:44:56;;;;;;;4.62;1.70;;;;;;;16.78;55.01;98898.22;4471951;32;19990;-80
2022/05/26 00:47:25;;;;;;;6.43;1.80;;;;;;;16.59;55.28;98906.78;4470311;32;20085;-82
2022/05/26 00:50:00;;;;;;;5.43;1.60;;;;;;;16.65;55.20;98914.28;4457394;32;20081;-83
2022/05/26 00:53:08;;;;;;;4.00;1.27;;;;;;;16.46;55.57;98913.06;4470043;32;20119;-82
2022/05/26 00:55:36;;;;;;;6.15;1.60;;;;;;;16.40;55.52;98915.34;4394751;32;20122;-83
2022/05/26 00:58:05;;;;;;;6.47;1.80;;;;;;;16.46;54.97;98912.25;4394625;32;20516;-83
2022/05/26 01:00:32;;;;;;;3.55;1.20;;;;;;;16.49;54.91;98914.62;4407545;32;20472;-82
2022/05/26 01:03:22;;;;;;;5.85;1.60;;;;;;;16.20;55.59;98912.38;4394718;32;20190;-82
2022/05/26 01:05:58;;;;;;;4.75;1.60;;;;;;;16.27;55.29;98918.94;4394850;32;20098;-83
2022/05/26 01:08:35;;;;;;;4.93;1.80;;;;;;;16.30;55.04;98908.09;4407528;32;20111;-82
2022/05/26 01:11:01;;;;;;;4.18;1.70;;;;;;;16.35;55.29;98904.22;4394999;32;20508;-82
2022/05/26 01:13:27;;;;;;;5.80;1.60;;;;;;;16.26;55.68;98906.62;4394593;32;20136;-82
2022/05/26 01:16:04;;;;;;;4.55;1.65;;;;;;;16.11;55.97;98911.28;4407618;32;20098;-81
2022/05/26 01:19:08;;;;;;;6.18;1.70;;;;;;;15.82;56.05;98905.50;4407309;32;20563;-82
2022/05/26 01:21:49;;;;;;;4.82;1.73;;;;;;;16.01;55.45;98915.62;4362397;32;20102;-81
2022/05/26 01:24:36;;;;;;;3.78;1.40;;;;;;;16.05;54.99;98917.06;4349968;32;20486;-81
2022/05/26 01:27:20;;;;;;;4.03;1.65;;;;;;;15.87;54.88;98913.13;4362410;32;20138;-81
2022/05/26 01:30:21;;;;;;;4.03;1.40;;;;;;;15.79;54.04;98913.69;4398897;32;20246;-82
2022/05/26 01:33:06;;;;;;;4.40;1.37;;;;;;;16.02;53.39;98901.34;4422074;32;20165;-81
2022/05/26 01:35:45;;;;;;;4.25;1.33;;;;;;;16.06;53.19;98901.97;4410041;32;20106;-81
2022/05/26 01:38:21;;;;;;;4.40;1.50;;;;;;;15.98;53.20;98904.37;4409509;32;20109;-80
2022/05/26 01:40:46;;;;;;;5.90;1.60;;;;;;;16.17;52.45;98906.47;4409950;32;20145;-82
2022/05/26 01:43:23;;;;;;;4.25;1.30;;;;;;;16.08;52.78;98908.00;4422251;32;20109;-81
2022/05/26 01:45:48;;;;;;;5.12;1.40;;;;;;;15.94;53.01;98919.69;4410248;32;20556;-82
2022/05/26 01:48:33;;;;;;;4.07;1.20;;;;;;;16.18;51.85;98914.31;4422156;32;20112;-82
2022/05/26 01:51:21;;;;;;;4.30;1.40;;;;;;;16.37;51.20;98921.75;4409856;32;20108;-82
2022/05/26 01:53:55;;;;;;;3.35;1.30;;;;;;;16.31;51.26;98917.75;4422450;32;20452;-80
2022/05/26 01:56:28;;;;;;;6.18;1.50;;;;;;;16.01;52.04;98925.38;4410080;32;20162;-80
2022/05/26 01:59:03;;;;;;;3.30;1.30;;;;;;;16.07;51.25;98925.78;4443726;32;20156;-82
2022/05/26 02:01:33;;;;;;;3.20;1.25;;;;;;;16.15;51.09;98925.19;4469976;32;20077;-80
2022/05/26 02:04:02;;;;;;;3.28;1.10;;;;;;;16.16;50.90;98931.34;4456535;32;20072;-82
2022/05/26 02:06:33;;;;;;;4.12;1.25;;;;;;;16.23;50.76;98929.94;4469909;32;20108;-81
2022/05/26 02:09:10;;;;;;;2.92;1.15;;;;;;;16.24;50.52;98937.78;4469628;32;20468;-81
2022/05/26 02:11:38;;;;;;;4.10;1.45;;;;;;;16.33;50.27;98935.41;4469827;32;20106;-82
2022/05/26 02:14:09;;;;;;;6.93;1.40;;;;;;;16.43;50.20;98941.72;4469537;32;20123;-81
2022/05/26 02:16:38;;;;;;;3.03;1.10;;;;;;;16.74;49.32;98942.84;4470644;32;20452;-82
2022/05/26 02:19:23;;;;;;;2.85;1.05;;;;;;;16.31;50.21;98957.63;4470391;32;20106;-81
2022/05/26 02:22:05;;;;;;;4.25;1.30;;;;;;;16.34;50.20;98961.00;4469674;32;20073;-82
2022/05/26 02:24:59;;;;;;;3.37;1.20;;;;;;;16.47;49.93;98967.09;4470408;32;20107;-82
2022/05/26 02:27:26;;;;;;;3.58;1.30;;;;;;;16.34;50.28;98971.66;4470690;32;20088;-82
2022/05/26 02:29:52;;;;;;;6.55;1.30;;;;;;;16.27;50.72;98968.62;4470856;32;20501;-82
2022/05/26 02:32:45;;;;;;;4.70;1.77;;;;;;;16.51;50.11;98965.91;4470819;32;20080;-81
2022/05/26 02:35:18;;;;;;;3.30;1.20;;;;;;;16.22;50.88;98978.72;4466164;32;20069;-81
2022/05/26 02:37:47;;;;;;;4.47;1.30;;;;;;;16.53;50.17;98979.91;4469076;32;20101;-83
2022/05/26 02:40:13;;;;;;;5.57;1.20;;;;;;;16.40;50.60;98980.03;4469770;32;20096;-82
2022/05/26 02:42:45;;;;;;;3.50;1.20;;;;;;;16.18;51.26;98980.78;4471325;32;20157;-83
2022/05/26 02:45:11;;;;;;;6.05;1.58;;;;;;;16.19;51.16;98977.16;4472113;32;20152;-82
2022/05/26 02:47:48;;;;;;;3.55;1.00;;;;;;;16.14;51.36;98995.25;4471115;32;20092;-81
2022/05/26 02:50:46;;;;;;;6.40;1.50;;;;;;;16.02;51.61;98974.91;4471048;32;20084;-81
2022/05/26 02:53:17;;;;;;;3.50;1.30;;;;;;;15.70;52.30;98981.59;4471534;32;20466;-82
2022/05/26 02:55:58;;;;;;;4.07;1.30;;;;;;;16.02;51.27;98983.72;4472373;32;20428;-80
2022/05/26 02:58:46;;;;;;;5.78;1.40;;;;;;;15.82;51.37;98977.22;4472470;32;20081;-81
2022/05/26 03:01:42;;;;;;;2.87;1.20;;;;;;;16.11;50.50;98977.72;4472258;32;20076;-82
2022/05/26 03:04:19;;;;;;;4.55;2.12;;;;;;;15.95;50.60;98981.63;4395478;32;20187;-81
2022/05/26 03:06:49;;;;;;;3.72;1.17;;;;;;;16.07;50.30;98978.06;4395619;32;20147;-79
2022/05/26 03:09:15;;;;;;;5.10;1.37;;;;;;;16.35;49.76;98976.84;4408252;32;20121;-79
2022/05/26 03:11:54;;;;;;;4.87;1.35;;;;;;;16.27;49.68;98976.59;4395502;32;20105;-79
2022/05/26 03:14:20;;;;;;;4.20;1.37;;;;;;;16.40;49.39;98980.03;4408374;32;20158;-79
2022/05/26 03:16:46;;;;;;;3.35;1.40;;;;;;;16.48;49.12;98993.56;4395527;32;20136;-80
2022/05/26 03:19:11;;;;;;;3.03;1.27;;;;;;;16.59;48.94;98982.13;4395211;32;20106;-80
2022/05/26 03:21:38;;;;;;;4.57;1.30;;;;;;;16.45;49.18;98992.97;4418757;32;20105;-78
2022/05/26 03:24:04;;;;;;;3.05;1.20;;;;;;;16.39;49.27;98988.09;4423293;32;20117;-76
2022/05/26 03:26:29;;;;;;;3.53;1.12;;;;;;;16.40;49.02;98992.44;4423369;32;20102;-78
2022/05/26 03:28:55;;;;;;;4.28;1.50;;;;;;;16.57;48.50;98997.34;4423470;32;20466;-78
2022/05/26 03:31:20;;;;;;;3.65;1.30;;;;;;;16.54;48.60;99005.56;4423278;32;20359;-79
2022/05/26 03:41:59;;;;;;;3.87;1.40;;;;;;;17.06;48.08;99017.56;4469967;32;20122;-80
2022/05/26 03:44:25;;;;;;;3.47;1.33;;;;;;;16.96;48.25;99023.69;4470561;32;20084;-79
2022/05/26 03:46:51;;;;;;;2.90;1.20;;;;;;;17.10;48.22;99027.00;4471843;32;20084;-78
2022/05/26 03:49:16;;;;;;;3.60;1.00;;;;;;;17.41;47.57;99024.59;4472055;32;20111;-79
2022/05/26 03:51:42;;;;;;;4.05;1.20;;;;;;;17.41;47.65;99031.75;4471221;32;20115;-79
2022/05/26 03:54:07;;;;;;;4.55;1.20;;;;;;;17.54;47.36;99032.47;4471986;32;20106;-79
2022/05/26 03:56:32;;;;;;;3.95;1.20;;;;;;;17.61;46.95;99023.00;4471752;32;20111;-80
2022/05/26 03:58:58;;;;;;;5.40;1.27;;;;;;;17.79;46.51;99023.34;4471911;32;20080;-81
2022/05/26 04:01:23;;;;;;;2.78;1.10;;;;;;;17.80;46.36;99026.84;4471766;32;20076;-79
2022/05/26 04:03:49;;;;;;;3.83;1.37;;;;;;;17.79;46.79;99031.34;4471718;32;20450;-78
2022/05/26 04:06:15;;;;;;;4.62;1.20;;;;;;;17.93;46.20;99018.75;4471942;32;20409;-79
2022/05/26 04:08:40;;;;;;;4.68;1.30;;;;;;;17.87;46.36;99038.75;4471758;32;20089;-78
2022/05/26 04:11:06;;;;;;;4.68;1.30;;;;;;;17.87;46.26;99031.59;4471729;32;20111;-78
2022/05/26 04:13:31;;;;;;;5.30;1.42;;;;;;;18.12;46.16;99028.75;4471937;32;20103;-78
2022/05/26 04:15:57;;;;;;;4.43;1.42;;;;;;;18.14;46.15;99043.66;4471886;32;20076;-79
2022/05/26 04:18:22;;;;;;;3.62;1.30;;;;;;;18.31;45.94;99034.28;4471835;32;20115;-78
2022/05/26 04:20:48;;;;;;;2.65;1.15;;;;;;;18.53;46.09;99038.66;4471828;32;20076;-78
2022/05/26 04:23:13;;;;;;;2.22;1.05;;;;;;;18.74;45.63;99043.19;4471576;32;20104;-80
2022/05/26 04:25:38;;;;;;;4.40;1.73;;;;;;;18.81;46.13;99047.03;4470201;32;20144;-79
2022/05/26 04:28:07;;;;;;;3.33;1.10;;;;;;;19.12;45.67;99045.28;4471838;32;20471;-78
2022/05/26 04:30:33;;;;;;;3.05;1.10;;;;;;;19.38;45.15;99044.84;4472061;32;20150;-78
2022/05/26 04:32:58;;;;;;;3.15;1.20;;;;;;;19.38;45.18;99055.53;4471801;32;20084;-78
2022/05/26 04:35:23;;;;;;;3.00;1.33;;;;;;;19.48;45.08;99055.59;4471732;32;20416;-78
2022/05/26 04:37:49;;;;;;;4.12;1.30;;;;;;;19.59;45.29;99058.19;4471957;32;20103;-78
2022/05/26 04:40:14;;;;;;;3.12;1.20;;;;;;;19.53;45.44;99050.66;4472074;32;20084;-77
2022/05/26 04:42:40;;;;;;;4.18;1.40;;;;;;;19.73;44.92;99059.66;4470707;32;20477;-76
2022/05/26 04:45:08;;;;;;;3.55;1.30;;;;;;;19.59;45.26;99053.66;4471862;32;20069;-78
2022/05/26 04:47:34;;;;;;;4.18;1.40;;;;;;;19.66;45.23;99061.97;4470688;32;20151;-78
2022/05/26 04:50:00;;;;;;;3.47;1.25;;;;;;;19.71;44.93;99061.59;4481912;32;20201;-80
2022/05/26 04:52:26;;;;;;;30.58;13.20;;;;;;;19.92;44.86;99067.75;4487724;31;20080;-78
2022/05/26 04:54:52;;;;;;;27.40;11.55;;;;;;;20.00;44.95;99064.37;4486069;32;20378;-78
2022/05/26 04:57:20;;;;;;;5.30;1.83;;;;;;;20.27;44.39;99061.06;4486203;32;20111;-77
2022/05/26 04:59:45;;;;;;;4.82;1.40;;;;;;;20.58;44.29;99072.47;4487381;31;20123;-78
2022/05/26 05:02:13;;;;;;;4.22;1.30;;;;;;;20.72;44.11;99081.09;4487273;31;20106;-78
2022/05/26 05:04:41;;;;;;;3.72;1.40;;;;;;;20.77;43.77;99068.16;4473385;32;20149;-80
2022/05/26 05:07:08;;;;;;;1.80;1.10;;;;;;;20.99;43.77;99081.22;4470655;32;20097;-80
2022/05/26 05:09:34;;;;;;;3.58;1.25;;;;;;;21.19;43.60;99081.22;4471790;32;20097;-79
2022/05/26 05:11:59;;;;;;;5.55;1.52;;;;;;;21.21;43.67;99080.06;4470398;32;20122;-79
2022/05/26 05:14:25;;;;;;;4.10;1.33;;;;;;;21.31;43.48;99080.03;4470411;32;20329;-79
2022/05/26 05:16:50;;;;;;;3.25;1.40;;;;;;;21.66;43.60;99091.94;4471503;32;20127;-78
2022/05/26 05:19:18;;;;;;;3.22;1.30;;;;;;;21.96;42.96;99087.28;4470325;32;20110;-79
2022/05/26 05:21:54;;;;;;;4.87;1.35;;;;;;;22.23;42.56;99085.59;4470354;32;20081;-79
2022/05/26 05:24:24;;;;;;;3.37;1.23;;;;;;;22.47;42.03;99095.78;4471328;32;20068;-79
2022/05/26 05:26:54;;;;;;;4.22;1.27;;;;;;;22.71;41.48;99100.53;4470306;32;20149;-79
2022/05/26 05:29:23;;;;;;;5.10;1.40;;;;;;;22.58;41.59;99099.09;4470348;32;20101;-79
2022/05/26 05:32:02;;;;;;;3.22;1.20;;;;;;;22.30;41.83;99102.81;4470154;32;20131;-79
2022/05/26 05:34:43;;;;;;;2.85;1.30;;;;;;;22.24;42.28;99111.44;4471550;32;20080;-78
2022/05/26 05:37:09;;;;;;;3.00;1.20;;;;;;;22.54;41.49;99107.56;4470257;32;20100;-78
2022/05/26 05:39:35;;;;;;;3.75;1.27;;;;;;;22.33;41.38;99116.78;4470249;32;20100;-79
2022/05/26 05:42:00;;;;;;;2.22;1.10;;;;;;;22.45;41.07;99121.94;4470420;32;20108;-79
2022/05/26 05:44:27;;;;;;;3.90;1.20;;;;;;;22.41;41.12;99121.38;4471573;32;20129;-80
2022/05/26 05:46:57;;;;;;;3.22;1.30;;;;;;;22.41;40.68;99129.44;4470427;32;20105;-79
2022/05/26 05:49:24;;;;;;;2.00;1.00;;;;;;;22.23;41.28;99139.25;4470464;32;20679;-79
2022/05/26 05:51:50;;;;;;;;;;;;;;;22.52;40.49;99145.34;4470484;32;20170;-80
2022/05/26 05:54:16;;;;;;;3.15;1.20;;;;;;;22.61;40.46;99137.38;4471621;32;19968;-79
2022/05/26 05:56:41;;;;;;;2.95;1.15;;;;;;;22.62;40.24;99137.22;4471299;32;20111;-79
2022/05/26 05:59:06;;;;;;;5.70;1.20;;;;;;;22.74;40.00;99145.91;4471010;32;20089;-80
2022/05/26 06:01:33;;;;;;;2.70;0.98;;;;;;;22.93;40.01;99143.06;4471390;32;20416;-80
2022/05/26 06:03:59;;;;;;;5.20;1.67;;;;;;;23.19;39.51;99138.75;4471124;32;20133;-80
2022/05/26 06:06:24;;;;;;;2.33;1.20;;;;;;;23.31;39.12;99145.56;4471085;32;20136;-79
2022/05/26 06:08:49;;;;;;;4.00;1.25;;;;;;;23.33;39.03;99138.19;4471218;32;20155;-80
2022/05/26 06:11:15;;;;;;;4.37;1.23;;;;;;;23.37;38.96;99136.88;4470951;32;20421;-80
2022/05/26 06:13:41;;;;;;;2.55;1.10;;;;;;;23.32;39.45;99140.03;4471021;32;20081;-79
2022/05/26 06:16:06;;;;;;;3.92;1.00;;;;;;;23.62;38.92;99140.56;4470497;32;20084;-79
2022/05/26 06:18:32;;;;;;;3.37;1.10;;;;;;;23.66;38.65;99150.03;4470948;32;20084;-79
2022/05/26 06:21:05;;;;;;;2.10;1.00;;;;;;;23.36;38.56;99144.09;4470978;32;20081;-79
2022/05/26 06:23:31;;;;;;;3.83;1.10;;;;;;;23.49;39.00;99146.38;4467338;32;106343;-79
2022/05/26 06:25:57;;;;;;;3.30;1.00;;;;;;;23.80;38.72;99154.00;4470928;32;20144;-79
2022/05/26 06:31:08;;;;;;;2.83;1.10;;;;;;;24.28;37.78;99154.37;4469876;32;20137;-80
2022/05/26 06:39:03;;;;;;;4.68;1.50;;;;;;;24.94;37.22;99171.59;4486343;32;20145;-81
2022/05/26 06:44:14;;;;;;;3.42;1.12;;;;;;;25.11;35.59;99183.19;4486324;32;20222;-83
2022/05/26 06:46:39;;;;;;;3.40;1.20;;;;;;;25.24;35.81;99172.78;4485159;32;20174;-81
2022/05/26 06:49:05;;;;;;;2.40;1.10;;;;;;;24.85;35.69;99178.78;4486184;32;20463;-80
2022/05/26 06:51:30;;;;;;;5.90;1.30;;;;;;;24.58;36.37;99184.47;4483187;32;20187;-79
2022/05/26 06:53:56;;;;;;;4.82;1.30;;;;;;;24.56;37.28;99184.63;4486247;31;20112;-88
2022/05/26 06:56:22;;;;;;;5.25;1.42;;;;;;;24.65;37.00;99186.34;4480349;32;20206;-84
2022/05/26 06:58:47;;;;;;;3.03;1.20;;;;;;;24.92;36.55;99187.91;4482638;31;20120;-86
2022/05/26 07:01:14;;;;;;;4.95;1.27;;;;;;;25.21;35.54;99181.19;4474262;32;20481;-80
2022/05/26 07:03:41;;;;;;;3.37;1.33;;;;;;;25.26;36.16;99178.84;4476172;32;20072;-80
2022/05/26 07:06:16;;;;;;;5.97;1.33;;;;;;;25.37;35.63;99175.00;4482987;32;20148;-81
2022/05/26 07:08:46;;;;;;;5.90;1.50;;;;;;;25.22;36.04;99180.22;4477731;32;20127;-81
2022/05/26 07:11:12;;;;;;;4.05;1.25;;;;;;;25.33;35.08;99165.56;4484918;32;20115;-77
2022/05/26 07:13:37;;;;;;;3.25;1.45;;;;;;;25.04;34.97;99174.94;4471666;32;20233;-78
2022/05/26 07:16:03;;;;;;;5.70;1.40;;;;;;;25.22;35.42;99173.94;4471206;32;20383;-81
2022/05/26 07:18:29;;;;;;;3.55;1.15;;;;;;;24.89;36.28;99172.06;4478554;32;20084;-81
2022/05/26 07:20:55;;;;;;;3.87;1.00;;;;;;;25.20;36.00;99176.81;4485814;31;20149;-81
2022/05/26 07:23:21;;;;;;;3.92;1.20;;;;;;;25.38;35.50;99174.00;4485795;32;20084;-81
2022/05/26 07:25:46;;;;;;;2.30;1.08;;;;;;;25.34;35.44;99186.09;4484426;32;20403;-81
2022/05/26 07:28:14;;;;;;;5.03;1.55;;;;;;;25.23;35.42;99189.16;4485685;32;20107;-81
2022/05/26 07:30:41;;;;;;;3.37;1.25;;;;;;;25.15;35.31;99189.97;4488025;31;20080;-81
2022/05/26 07:33:07;;;;;;;3.62;1.10;;;;;;;25.07;35.80;99195.34;4487048;32;20072;-81
2022/05/26 07:35:33;;;;;;;3.65;1.37;;;;;;;25.01;35.35;99190.59;4488223;31;20093;-81
2022/05/26 07:43:30;;;;;;;4.12;1.30;;;;;;;25.09;36.56;99202.25;4486832;32;20152;-81
2022/05/26 07:45:56;;;;;;;3.87;1.23;;;;;;;24.97;36.48;99208.13;4487937;31;20444;-81
2022/05/26 07:48:21;;;;;;;5.78;1.48;;;;;;;24.86;36.50;99207.44;4487867;31;20080;-81
2022/05/26 07:50:47;;;;;;;3.90;1.30;;;;;;;25.21;35.65;99202.78;4487869;31;20080;-81
2022/05/26 07:53:12;;;;;;;4.87;1.30;;;;;;;25.18;35.60;99215.75;4487693;31;20103;-81
2022/05/26 07:55:42;;;;;;;3.65;1.23;;;;;;;25.29;34.71;99208.19;4487879;31;20080;-81
2022/05/26 07:58:11;;;;;;;2.75;1.10;;;;;;;25.01;35.15;99215.72;4487840;31;20119;-81
2022/05/26 08:00:36;;;;;;;4.30;1.20;;;;;;;25.13;35.55;99210.88;4486707;32;20088;-81
2022/05/26 08:03:02;;;;;;;1.70;1.05;;;;;;;25.14;36.53;99220.62;4487817;31;20480;-81
2022/05/26 08:05:27;;;;;;;2.87;1.20;;;;;;;24.93;36.27;99227.31;4487601;32;20380;-81
2022/05/26 08:07:53;;;;;;;3.05;1.20;;;;;;;24.90;37.15;99222.28;4486540;32;20156;-81
2022/05/26 08:10:19;;;;;;;4.32;1.30;;;;;;;24.52;37.45;99224.50;4486565;32;20431;-81
2022/05/26 08:12:44;;;;;;;5.10;1.10;;;;;;;24.84;36.67;99224.75;4487647;31;20092;-81
2022/05/26 08:15:10;;;;;;;5.72;1.37;;;;;;;24.92;36.06;99225.66;4487684;32;20113;-81
2022/05/26 08:17:36;;;;;;;5.25;1.50;;;;;;;24.64;36.92;99210.75;4487813;31;20088;-81
2022/05/26 08:20:03;;;;;;;3.47;1.20;;;;;;;25.08;35.85;99216.72;4486733;32;20143;-81
2022/05/26 08:22:28;;;;;;;3.33;1.30;;;;;;;24.95;35.77;99212.84;4487811;31;20080;-81
2022/05/26 08:24:55;;;;;;;5.82;1.23;;;;;;;24.86;35.82;99207.44;4486045;32;20123;-81
2022/05/26 08:27:21;;;;;;;3.37;1.15;;;;;;;24.99;36.50;99212.34;4487772;31;20156;-82
2022/05/26 08:29:47;;;;;;;4.70;1.27;;;;;;;24.44;35.54;99213.69;4486439;32;20144;-82
2022/05/26 08:32:19;;;;;;;1.83;0.93;;;;;;;24.91;35.44;99221.25;4487596;31;20084;-82
2022/05/26 08:34:45;;;;;;;4.82;1.23;;;;;;;24.89;35.54;99214.34;4486475;32;20101;-82
2022/05/26 08:37:20;;;;;;;4.30;1.20;;;;;;;24.83;35.64;99215.00;4486311;32;20443;-82
2022/05/26 08:39:45;;;;;;;3.92;1.30;;;;;;;24.65;36.11;99215.13;4486218;32;20091;-82
2022/05/26 08:42:17;;;;;;;4.95;1.30;;;;;;;24.42;36.46;99218.38;4487398;31;20105;-81
2022/05/26 08:44:43;;;;;;;3.85;1.15;;;;;;;24.20;36.52;99227.84;4486381;32;20096;-81
2022/05/26 08:47:17;;;;;;;4.43;1.10;;;;;;;24.45;36.69;99217.22;4486250;32;20092;-82
2022/05/26 08:50:03;;;;;;;4.50;1.20;;;;;;;24.13;36.33;99222.28;4487525;32;20083;-82
2022/05/26 08:52:33;;;;;;;3.87;1.02;;;;;;;24.20;35.61;99224.34;4487338;32;20149;-81
2022/05/26 08:55:19;;;;;;;2.90;0.90;;;;;;;24.39;35.63;99226.78;4487718;31;20105;-81
2022/05/26 08:57:50;;;;;;;2.28;0.90;;;;;;;24.43;35.28;99227.31;4487491;31;20114;-81
2022/05/26 09:00:19;;;;;;;3.37;1.12;;;;;;;24.66;34.97;99231.13;4487398;31;20527;-82
2022/05/26 09:02:45;;;;;;;2.60;1.10;;;;;;;24.60;33.64;99229.09;4486256;32;20107;-81
2022/05/26 09:05:16;;;;;;;3.08;1.00;;;;;;;24.42;34.71;99228.31;4487468;31;20113;-81
2022/05/26 09:13:42;;;;;;;3.92;0.95;;;;;;;24.98;33.46;99231.41;4486286;32;20106;-82
2022/05/26 09:16:08;;;;;;;2.42;1.00;;;;;;;25.02;32.64;99230.06;4487338;31;20119;-81
2022/05/26 09:18:34;;;;;;;2.60;0.90;;;;;;;25.08;31.96;99222.13;4486201;32;20112;-82
2022/05/26 09:21:21;;;;;;;4.07;0.93;;;;;;;25.09;31.98;99231.91;4487262;31;20075;-81
2022/05/26 09:23:47;;;;;;;4.62;1.00;;;;;;;24.76;30.72;99236.38;4486014;32;20103;-82
2022/05/26 09:26:16;;;;;;;2.47;0.90;;;;;;;24.67;31.25;99232.81;4485876;32;20535;-81
2022/05/26 09:28:51;;;;;;;3.80;1.10;;;;;;;24.93;32.24;99232.69;4472866;32;20117;-81
2022/05/26 09:31:19;;;;;;;3.92;1.10;;;;;;;25.12;33.55;99228.88;4486094;32;20175;-81
2022/05/26 09:33:59;;;;;;;4.32;1.15;;;;;;;25.33;33.17;99224.88;4487159;32;20098;-82
2022/05/26 09:36:27;;;;;;;4.07;1.27;;;;;;;25.28;34.11;99230.78;4486298;32;20159;-82
2022/05/26 09:38:52;;;;;;;5.40;1.20;;;;;;;25.19;33.90;99222.81;4487385;31;20088;-82
2022/05/26 09:41:18;;;;;;;2.95;0.90;;;;;;;25.20;34.39;99219.94;4487495;31;20357;-82
2022/05/26 09:43:52;;;;;;;2.65;1.10;;;;;;;25.17;32.71;99227.53;4485976;32;20133;-82
2022/05/26 09:46:18;;;;;;;5.50;1.10;;;;;;;25.30;33.22;99226.06;4486143;32;20439;-81
2022/05/26 09:48:45;;;;;;;4.78;1.25;;;;;;;25.47;32.39;99229.59;4487265;31;20108;-82
2022/05/26 09:51:40;;;;;;;2.60;1.08;;;;;;;25.59;32.17;99223.87;4472069;32;20463;-82
2022/05/26 09:54:30;;;;;;;2.95;1.00;;;;;;;25.49;32.51;99226.72;4486140;32;20106;-82
2022/05/26 09:56:56;;;;;;;6.43;1.00;;;;;;;25.65;31.03;99231.28;4487319;31;20092;-81
2022/05/26 09:59:23;;;;;;;5.43;1.30;;;;;;;25.24;30.24;99228.56;4486083;32;20169;-81
2022/05/26 10:01:51;;;;;;;3.72;1.12;;;;;;;25.36;31.24;99221.84;4486891;31;20107;-81
2022/05/26 10:04:35;;;;;;;5.18;1.15;;;;;;;25.25;32.15;99230.28;4485879;32;20124;-82
2022/05/26 10:07:30;;;;;;;4.75;1.35;;;;;;;25.52;32.19;99229.09;4485750;32;20127;-81
2022/05/26 10:09:58;;;;;;;6.55;1.37;;;;;;;25.77;32.48;99220.97;4487046;31;20484;-81
2022/05/26 10:12:38;;;;;;;3.37;1.25;;;;;;;25.82;31.89;99210.50;4485701;32;20447;-82
2022/05/26 10:15:22;;;;;;;1.87;0.98;;;;;;;25.80;31.79;99223.34;4486817;32;20076;-82
2022/05/26 10:17:51;;;;;;;2.90;1.10;;;;;;;25.99;31.71;99231.09;4485656;32;20367;-81
2022/05/26 10:20:22;;;;;;;2.90;1.00;;;;;;;25.94;30.49;99222.69;4486775;31;20099;-82
2022/05/26 10:23:06;;;;;;;2.17;1.00;;;;;;;26.08;30.45;99227.38;4486825;32;20084;-81
2022/05/26 10:25:56;;;;;;;2.65;1.08;;;;;;;25.96;30.13;99220.66;4486408;31;20110;-81
2022/05/26 10:28:24;;;;;;;3.58;1.00;;;;;;;25.73;30.45;99225.03;4485777;32;20459;-82
2022/05/26 10:31:14;;;;;;;3.28;0.90;;;;;;;25.74;30.50;99232.13;4486656;32;20092;-82
2022/05/26 10:33:57;;;;;;;3.33;0.93;;;;;;;25.93;29.52;99223.69;4486547;32;20089;-82
2022/05/26 10:36:44;;;;;;;2.80;1.02;;;;;;;25.92;29.13;99219.28;4486524;31;20096;-82
2022/05/26 10:39:32;;;;;;;4.32;0.95;;;;;;;26.07;29.32;99206.75;4485279;32;20142;-81
2022/05/26 10:42:12;;;;;;;3.35;1.00;;;;;;;26.20;29.64;99221.59;4486407;32;20130;-81
2022/05/26 10:45:01;;;;;;;4.50;1.20;;;;;;;26.32;30.04;99220.19;4472044;32;20101;-82
2022/05/26 10:47:43;;;;;;;5.47;1.20;;;;;;;26.04;30.12;99217.09;4486527;32;20084;-82
2022/05/26 10:50:16;;;;;;;4.20;1.20;;;;;;;26.52;29.98;99217.94;4485398;32;20452;-82
2022/05/26 10:52:46;;;;;;;4.03;1.20;;;;;;;26.49;29.55;99227.22;4485444;32;20123;-82
2022/05/26 10:55:21;;;;;;;4.18;1.12;;;;;;;26.73;29.53;99217.31;4486577;31;20249;-81
2022/05/26 10:57:53;;;;;;;3.28;1.20;;;;;;;26.90;30.00;99222.66;4485269;32;20084;-82
2022/05/26 11:00:22;;;;;;;3.58;0.93;;;;;;;26.85;28.43;99220.50;4471867;32;20096;-82
2022/05/26 11:03:13;;;;;;;2.58;1.27;;;;;;;26.83;29.25;99217.97;4486674;32;20116;-82
2022/05/26 11:05:50;;;;;;;6.22;1.10;;;;;;;26.26;30.04;99227.12;4486998;32;20080;-82
2022/05/26 11:09:07;;;;;;;4.35;1.27;;;;;;;26.60;29.45;99214.38;4487243;32;20106;-82
2022/05/26 11:11:48;;;;;;;3.97;1.30;;;;;;;26.85;28.98;99223.19;4487659;32;20085;-82
2022/05/26 11:17:49;;;;;;;5.07;1.30;;;;;;;27.28;28.12;99217.38;4487199;32;20573;-82
2022/05/26 11:20:28;;;;;;;5.97;2.05;;;;;;;27.08;28.22;99215.06;4487036;32;20103;-81
2022/05/26 11:22:55;;;;;;;3.22;0.98;;;;;;;27.36;28.08;99201.88;4486984;32;20169;-82
2022/05/26 11:25:25;;;;;;;3.95;1.27;;;;;;;27.43;28.97;99202.03;4486669;32;20637;-81
2022/05/26 11:27:55;;;;;;;5.25;1.15;;;;;;;27.49;28.81;99198.59;4486900;32;20106;-82
2022/05/26 11:36:29;;;;;;;3.70;1.33;;;;;;;27.69;28.71;99189.94;4487146;32;20118;-81
2022/05/26 11:38:54;;;;;;;4.22;1.30;;;;;;;27.65;28.45;99194.88;4487077;32;20084;-82
2022/05/26 11:41:35;;;;;;;3.80;1.30;;;;;;;27.77;28.15;99193.37;4486633;32;20107;-82
2022/05/26 11:44:07;;;;;;;3.20;1.48;;;;;;;27.41;28.56;99196.78;4486685;32;20154;-81
2022/05/26 11:46:41;;;;;;;5.57;1.40;;;;;;;27.55;28.58;99189.72;4486742;32;20790;-82
2022/05/26 11:49:09;;;;;;;2.55;1.10;;;;;;;27.47;28.95;99184.41;4487961;32;20107;-81
2022/05/26 11:51:42;;;;;;;1.83;0.80;;;;;;;27.44;29.22;99187.44;4487887;31;20435;-82
2022/05/26 11:54:09;;;;;;;4.28;1.10;;;;;;;27.38;29.47;99196.31;4486731;32;20096;-81
2022/05/26 11:56:43;;;;;;;2.95;1.02;;;;;;;27.59;28.20;99195.63;4486705;32;20104;-81
2022/05/26 11:59:32;;;;;;;3.53;1.10;;;;;;;27.49;28.27;99184.19;4486814;32;20084;-82
2022/05/26 12:02:00;;;;;;;4.80;1.17;;;;;;;27.65;28.51;99174.06;4487710;31;20149;-81
2022/05/26 12:04:32;;;;;;;3.28;1.00;;;;;;;27.50;28.74;99181.31;4487791;31;20120;-82
2022/05/26 12:07:07;;;;;;;4.25;1.10;;;;;;;27.77;28.62;99179.03;4487860;31;20092;-81
2022/05/26 12:09:40;;;;;;;4.20;1.00;;;;;;;27.80;28.37;99176.78;4486489;32;20451;-82
2022/05/26 12:12:08;;;;;;;5.25;1.00;;;;;;;27.79;27.98;99166.12;4486793;32;20458;-81
2022/05/26 12:14:46;;;;;;;4.62;1.10;;;;;;;27.72;26.97;99160.63;4486005;32;20167;-82
2022/05/26 12:17:30;;;;;;;4.00;1.00;;;;;;;27.90;26.94;99156.75;4487738;32;20246;-82
2022/05/26 12:19:57;;;;;;;3.35;1.10;;;;;;;27.85;27.06;99159.97;4486543;32;20106;-82
2022/05/26 12:22:34;;;;;;;4.15;0.95;;;;;;;27.78;27.48;99149.06;4486535;32;20076;-81
2022/05/26 12:24:59;;;;;;;3.25;0.90;;;;;;;27.57;27.46;99149.78;4486431;32;20088;-82
2022/05/26 12:27:56;;;;;;;1.92;0.93;;;;;;;27.62;27.70;99146.50;4487627;32;20164;-82
2022/05/26 12:30:35;;;;;;;2.92;1.00;;;;;;;27.24;27.80;99146.53;4487640;31;20088;-83
2022/05/26 12:33:18;;;;;;;2.67;1.10;;;;;;;27.49;27.75;99144.47;4486524;32;20091;-82